createdAt,value
2022-09-26T00:00:57.908Z,88.04
2022-09-26T00:01:57.956Z,88.08
2022-09-26T00:02:57.919Z,88.08
2022-09-26T00:03:57.807Z,87.88
2022-09-26T00:04:57.835Z,87.94
2022-09-26T00:05:57.946Z,87.98
2022-09-26T00:06:57.808Z,88.29
2022-09-26T00:07:57.753Z,88.39
2022-09-26T00:08:57.766Z,88.70
2022-09-26T00:09:57.775Z,88.90
2022-09-26T00:10:57.766Z,88.70
2022-09-26T00:11:57.899Z,88.59
2022-09-26T00:12:57.799Z,88.90
2022-09-26T00:13:57.650Z,89.11
2022-09-26T00:14:57.773Z,89.21
2022-09-26T00:15:57.646Z,89.42
2022-09-26T00:16:57.751Z,89.21
2022-09-26T00:17:57.702Z,88.80
2022-09-26T00:18:57.662Z,88.49
2022-09-26T00:19:57.648Z,88.70
2022-09-26T00:20:57.597Z,88.80
2022-09-26T00:21:57.569Z,88.90
2022-09-26T00:22:57.590Z,89.00
2022-09-26T00:23:57.691Z,88.90
2022-09-26T00:24:57.640Z,88.90
2022-09-26T00:25:57.512Z,88.80
2022-09-26T00:26:57.494Z,89.31
2022-09-26T00:27:57.545Z,89.51
2022-09-26T00:28:57.488Z,89.62
2022-09-26T00:29:57.554Z,89.83
2022-09-26T00:30:57.552Z,89.62
2022-09-26T00:31:57.486Z,89.42
2022-09-26T00:32:57.474Z,89.42
2022-09-26T00:33:57.473Z,88.90
2022-09-26T00:34:57.490Z,89.21
2022-09-26T00:35:57.472Z,89.11
2022-09-26T00:36:57.517Z,89.11
2022-09-26T00:37:57.393Z,89.11
2022-09-26T00:38:57.366Z,89.21
2022-09-26T00:39:57.445Z,89.11
2022-09-26T00:40:57.490Z,89.11
2022-09-26T00:41:57.544Z,89.31
2022-09-26T00:42:57.424Z,89.21
2022-09-26T00:43:57.383Z,89.31
2022-09-26T00:44:57.334Z,89.42
2022-09-26T00:45:57.342Z,89.31
2022-09-26T00:46:57.380Z,89.31
2022-09-26T00:47:57.256Z,89.11
2022-09-26T00:48:57.230Z,88.90
2022-09-26T00:49:57.375Z,88.70
2022-09-26T00:50:57.316Z,88.80
2022-09-26T00:51:57.217Z,88.39
2022-09-26T00:52:57.195Z,88.49
2022-09-26T00:53:57.238Z,88.59
2022-09-26T00:54:57.163Z,89.00
2022-09-26T00:55:57.142Z,89.00
2022-09-26T00:56:57.195Z,89.31
2022-09-26T00:57:57.103Z,89.31
2022-09-26T00:58:57.153Z,89.11
2022-09-26T00:59:57.130Z,89.11
2022-09-26T01:00:57.356Z,89.31
2022-09-26T01:01:57.332Z,89.42
2022-09-26T01:02:57.108Z,89.11
2022-09-26T01:03:57.038Z,89.11
2022-09-26T01:04:57.075Z,89.31
2022-09-26T01:05:57.009Z,89.51
2022-09-26T01:06:57.034Z,89.42
2022-09-26T01:07:56.952Z,89.92
2022-09-26T01:08:57.006Z,89.72
2022-09-26T01:09:57.074Z,89.83
2022-09-26T01:10:57.004Z,89.72
2022-09-26T01:11:57.012Z,89.92
2022-09-26T01:12:56.894Z,90.13
2022-09-26T01:13:56.937Z,89.92
2022-09-26T01:14:56.912Z,90.03
2022-09-26T01:15:56.912Z,90.03
2022-09-26T01:16:56.937Z,89.83
2022-09-26T01:17:56.846Z,89.83
2022-09-26T01:18:56.845Z,90.13
2022-09-26T01:19:56.784Z,90.23
2022-09-26T01:20:57.016Z,90.34
2022-09-26T01:21:56.875Z,90.54
2022-09-26T01:22:56.932Z,90.84
2022-09-26T01:23:56.774Z,90.64
2022-09-26T01:24:56.778Z,90.64
2022-09-26T01:25:56.847Z,90.54
2022-09-26T01:26:56.725Z,90.54
2022-09-26T01:27:56.816Z,90.64
2022-09-26T01:28:56.762Z,90.75
2022-09-26T01:29:56.761Z,90.44
2022-09-26T01:30:56.791Z,90.34
2022-09-26T01:31:56.731Z,90.34
2022-09-26T01:32:56.789Z,90.13
2022-09-26T01:33:56.707Z,90.03
2022-09-26T01:34:56.593Z,89.78
2022-09-26T01:35:56.736Z,89.78
2022-09-26T01:36:56.663Z,89.58
2022-09-26T01:37:56.844Z,89.47
2022-09-26T01:38:56.631Z,89.47
2022-09-26T01:39:56.547Z,89.37
2022-09-26T01:40:56.648Z,89.37
2022-09-26T01:41:56.542Z,89.47
2022-09-26T01:42:56.603Z,89.47
2022-09-26T01:43:56.495Z,89.47
2022-09-26T01:44:56.510Z,89.47
2022-09-26T01:45:56.799Z,89.58
2022-09-26T01:46:56.507Z,89.98
2022-09-26T01:47:56.462Z,89.78
2022-09-26T01:48:56.578Z,89.58
2022-09-26T01:49:56.624Z,89.58
2022-09-26T01:50:56.419Z,89.58
2022-09-26T01:51:56.402Z,89.68
2022-09-26T01:52:56.449Z,89.78
2022-09-26T01:53:56.518Z,89.68
2022-09-26T01:54:56.447Z,89.68
2022-09-26T01:55:56.653Z,89.78
2022-09-26T01:56:56.346Z,89.98
2022-09-26T01:57:56.408Z,90.09
2022-09-26T01:58:56.327Z,90.09
2022-09-26T01:59:56.411Z,90.30
2022-09-26T02:00:56.318Z,90.50
2022-09-26T02:01:56.336Z,90.64
2022-09-26T02:02:56.298Z,90.75
2022-09-26T02:03:56.359Z,90.84
2022-09-26T02:04:56.239Z,90.95
2022-09-26T02:05:56.385Z,91.05
2022-09-26T02:06:56.208Z,91.26
2022-09-26T02:07:56.177Z,91.36
2022-09-26T02:08:56.177Z,91.46
2022-09-26T02:09:56.093Z,91.16
2022-09-26T02:10:56.132Z,90.95
2022-09-26T02:11:56.119Z,91.05
2022-09-26T02:12:56.075Z,91.05
2022-09-26T02:13:56.089Z,91.01
2022-09-26T02:14:56.069Z,90.70
2022-09-26T02:15:56.176Z,90.39
2022-09-26T02:16:56.131Z,90.39
2022-09-26T02:17:56.116Z,90.39
2022-09-26T02:18:56.021Z,90.39
2022-09-26T02:19:56.054Z,90.19
2022-09-26T02:20:56.013Z,90.30
2022-09-26T02:21:55.986Z,90.39
2022-09-26T02:22:56.024Z,90.39
2022-09-26T02:23:56.043Z,90.81
2022-09-26T02:24:55.952Z,90.70
2022-09-26T02:25:56.012Z,90.70
2022-09-26T02:26:56.045Z,90.81
2022-09-26T02:27:55.870Z,90.70
2022-09-26T02:28:55.883Z,90.91
2022-09-26T02:29:55.932Z,90.84
2022-09-26T02:30:56.002Z,91.01
2022-09-26T02:31:56.117Z,91.16
2022-09-26T02:32:55.907Z,91.05
2022-09-26T02:33:55.836Z,91.26
2022-09-26T02:34:55.793Z,91.46
2022-09-26T02:35:55.884Z,91.77
2022-09-26T02:36:55.800Z,91.77
2022-09-26T02:37:55.900Z,91.56
2022-09-26T02:38:55.840Z,91.77
2022-09-26T02:39:55.816Z,91.67
2022-09-26T02:40:55.826Z,91.56
2022-09-26T02:41:55.784Z,91.67
2022-09-26T02:42:55.898Z,91.67
2022-09-26T02:43:55.740Z,91.67
2022-09-26T02:44:55.853Z,91.56
2022-09-26T02:45:55.810Z,91.46
2022-09-26T02:46:55.709Z,91.16
2022-09-26T02:47:55.636Z,91.36
2022-09-26T02:48:55.616Z,91.56
2022-09-26T02:49:55.664Z,91.56
2022-09-26T02:50:55.653Z,91.67
2022-09-26T02:51:55.608Z,91.97
2022-09-26T02:52:55.630Z,91.97
2022-09-26T02:53:55.591Z,91.67
2022-09-26T02:54:55.624Z,91.87
2022-09-26T02:55:55.539Z,91.77
2022-09-26T02:56:55.637Z,91.77
2022-09-26T02:57:55.603Z,91.77
2022-09-26T02:58:55.480Z,91.67
2022-09-26T02:59:55.492Z,91.87
2022-09-26T03:00:55.605Z,91.67
2022-09-26T03:01:55.434Z,91.56
2022-09-26T03:02:55.505Z,91.56
2022-09-26T03:03:55.481Z,91.36
2022-09-26T03:04:55.638Z,91.36
2022-09-26T03:05:55.442Z,91.16
2022-09-26T03:06:55.450Z,91.16
2022-09-26T03:07:55.475Z,91.26
2022-09-26T03:08:55.436Z,91.26
2022-09-26T03:09:55.374Z,91.46
2022-09-26T03:10:55.463Z,91.56
2022-09-26T03:11:55.597Z,91.67
2022-09-26T03:12:55.336Z,91.87
2022-09-26T03:13:55.346Z,91.77
2022-09-26T03:14:58.574Z,91.87
2022-09-26T03:15:55.336Z,91.67
2022-09-26T03:16:55.398Z,91.67
2022-09-26T03:17:55.226Z,91.77
2022-09-26T03:18:55.245Z,91.97
2022-09-26T03:19:55.297Z,91.97
2022-09-26T03:20:55.297Z,91.73
2022-09-26T03:21:55.246Z,91.83
2022-09-26T03:22:55.196Z,91.73
2022-09-26T03:23:55.256Z,91.73
2022-09-26T03:24:55.206Z,91.83
2022-09-26T03:25:55.158Z,91.73
2022-09-26T03:26:55.313Z,91.52
2022-09-26T03:27:55.210Z,91.42
2022-09-26T03:28:55.077Z,91.52
2022-09-26T03:29:55.070Z,91.52
2022-09-26T03:30:55.184Z,91.63
2022-09-26T03:31:55.190Z,91.52
2022-09-26T03:32:55.061Z,91.42
2022-09-26T03:33:55.073Z,91.42
2022-09-26T03:34:55.090Z,91.42
2022-09-26T03:35:55.633Z,91.31
2022-09-26T03:36:54.993Z,91.31
2022-09-26T03:37:55.014Z,91.31
2022-09-26T03:38:55.116Z,91.52
2022-09-26T03:39:55.254Z,91.31
2022-09-26T03:40:55.035Z,91.42
2022-09-26T03:41:55.243Z,91.42
2022-09-26T03:42:55.011Z,91.42
2022-09-26T03:43:55.011Z,91.31
2022-09-26T03:44:54.877Z,91.42
2022-09-26T03:45:54.949Z,91.63
2022-09-26T03:46:54.874Z,91.63
2022-09-26T03:47:54.867Z,91.63
2022-09-26T03:48:54.848Z,91.42
2022-09-26T03:49:54.878Z,91.52
2022-09-26T03:50:54.885Z,91.22
2022-09-26T03:51:54.845Z,91.22
2022-09-26T03:52:55.015Z,91.22
2022-09-26T03:53:54.911Z,91.01
2022-09-26T03:54:54.845Z,91.01
2022-09-26T03:55:54.777Z,91.11
2022-09-26T03:56:54.903Z,91.01
2022-09-26T03:57:54.800Z,91.22
2022-09-26T03:58:54.760Z,91.22
2022-09-26T03:59:54.732Z,91.22
2022-09-26T04:00:54.757Z,91.42
2022-09-26T04:01:54.753Z,91.31
2022-09-26T04:02:54.700Z,91.42
2022-09-26T04:03:54.709Z,91.52
2022-09-26T04:04:54.759Z,91.52
2022-09-26T04:05:54.622Z,91.52
2022-09-26T04:06:54.657Z,91.42
2022-09-26T04:07:54.671Z,91.42
2022-09-26T04:08:57.336Z,91.42
2022-09-26T04:09:55.643Z,91.63
2022-09-26T04:10:54.641Z,91.52
2022-09-26T04:11:54.597Z,91.42
2022-09-26T04:12:54.661Z,91.52
2022-09-26T04:13:54.755Z,91.63
2022-09-26T04:14:54.524Z,91.63
2022-09-26T04:15:54.575Z,91.58
2022-09-26T04:16:54.458Z,91.17
2022-09-26T04:17:54.491Z,91.27
2022-09-26T04:18:54.493Z,91.38
2022-09-26T04:19:54.477Z,91.58
2022-09-26T04:20:54.402Z,91.58
2022-09-26T04:21:54.502Z,91.38
2022-09-26T04:22:54.395Z,91.38
2022-09-26T04:23:54.394Z,91.17
2022-09-26T04:24:54.482Z,91.38
2022-09-26T04:25:54.488Z,91.27
2022-09-26T04:26:54.326Z,91.48
2022-09-26T04:27:54.392Z,91.48
2022-09-26T04:28:54.352Z,91.27
2022-09-26T04:29:54.429Z,91.38
2022-09-26T04:30:54.796Z,91.27
2022-09-26T04:31:54.437Z,91.38
2022-09-26T04:32:54.507Z,91.38
2022-09-26T04:33:54.269Z,91.27
2022-09-26T04:34:54.368Z,91.27
2022-09-26T04:35:54.345Z,91.38
2022-09-26T04:36:54.231Z,91.38
2022-09-26T04:37:54.255Z,91.58
2022-09-26T04:38:54.201Z,91.48
2022-09-26T04:39:54.291Z,91.48
2022-09-26T04:40:54.287Z,91.58
2022-09-26T04:41:54.160Z,91.48
2022-09-26T04:42:54.155Z,91.38
2022-09-26T04:43:54.388Z,91.58
2022-09-26T04:44:54.207Z,91.48
2022-09-26T04:45:55.917Z,91.48
2022-09-26T04:46:54.251Z,91.69
2022-09-26T04:47:54.119Z,91.69
2022-09-26T04:48:54.222Z,91.69
2022-09-26T04:49:54.141Z,91.78
2022-09-26T04:50:54.299Z,91.78
2022-09-26T04:51:54.192Z,91.48
2022-09-26T04:52:54.036Z,91.38
2022-09-26T04:53:54.100Z,91.48
2022-09-26T04:54:53.966Z,91.48
2022-09-26T04:55:54.013Z,91.58
2022-09-26T04:56:54.039Z,91.58
2022-09-26T04:57:54.030Z,91.58
2022-09-26T04:58:53.932Z,91.69
2022-09-26T04:59:53.884Z,91.58
2022-09-26T05:00:53.946Z,91.38
2022-09-26T05:01:54.015Z,91.58
2022-09-26T05:02:53.909Z,91.78
2022-09-26T05:03:53.821Z,91.78
2022-09-26T05:04:53.918Z,91.78
2022-09-26T05:05:53.836Z,91.99
2022-09-26T05:06:53.826Z,92.30
2022-09-26T05:07:53.845Z,91.99
2022-09-26T05:08:53.874Z,91.99
2022-09-26T05:09:58.563Z,92.14
2022-09-26T05:10:53.745Z,92.24
2022-09-26T05:11:53.847Z,92.10
2022-09-26T05:12:53.815Z,91.99
2022-09-26T05:13:54.199Z,91.99
2022-09-26T05:14:53.698Z,91.89
2022-09-26T05:15:53.730Z,91.99
2022-09-26T05:16:53.812Z,92.10
2022-09-26T05:17:53.647Z,92.03
2022-09-26T05:18:53.801Z,92.10
2022-09-26T05:19:53.661Z,92.10
2022-09-26T05:20:53.637Z,92.19
2022-09-26T05:21:53.671Z,92.19
2022-09-26T05:22:53.735Z,91.99
2022-09-26T05:23:53.725Z,92.10
2022-09-26T05:24:53.697Z,91.99
2022-09-26T05:25:53.582Z,91.99
2022-09-26T05:26:53.612Z,92.19
2022-09-26T05:27:53.595Z,92.10
2022-09-26T05:28:53.561Z,92.19
2022-09-26T05:29:53.507Z,92.19
2022-09-26T05:30:53.533Z,92.10
2022-09-26T05:31:53.591Z,91.89
2022-09-26T05:32:53.502Z,91.78
2022-09-26T05:33:53.544Z,91.89
2022-09-26T05:34:53.416Z,91.99
2022-09-26T05:35:53.450Z,91.78
2022-09-26T05:36:53.490Z,91.78
2022-09-26T05:37:53.487Z,91.78
2022-09-26T05:38:53.514Z,91.78
2022-09-26T05:39:53.473Z,91.89
2022-09-26T05:40:53.502Z,91.99
2022-09-26T05:41:53.335Z,91.78
2022-09-26T05:42:53.387Z,91.69
2022-09-26T05:43:53.361Z,91.69
2022-09-26T05:44:53.354Z,91.69
2022-09-26T05:45:53.282Z,91.58
2022-09-26T05:46:53.462Z,91.58
2022-09-26T05:47:53.265Z,91.58
2022-09-26T05:48:53.473Z,91.48
2022-09-26T05:49:53.237Z,91.48
2022-09-26T05:50:53.214Z,91.58
2022-09-26T05:51:53.186Z,91.58
2022-09-26T05:52:53.161Z,91.58
2022-09-26T05:53:53.142Z,91.44
2022-09-26T05:54:53.101Z,91.23
2022-09-26T05:55:53.161Z,91.23
2022-09-26T05:56:53.073Z,91.23
2022-09-26T05:57:53.148Z,91.03
2022-09-26T05:58:53.040Z,91.03
2022-09-26T05:59:53.084Z,91.03
2022-09-26T06:00:53.230Z,90.82
2022-09-26T06:01:53.304Z,90.72
2022-09-26T06:02:53.296Z,90.82
2022-09-26T06:03:53.453Z,90.72
2022-09-26T06:04:53.152Z,90.92
2022-09-26T06:05:53.190Z,90.92
2022-09-26T06:06:53.129Z,90.82
2022-09-26T06:07:53.059Z,90.72
2022-09-26T06:08:53.231Z,90.72
2022-09-26T06:09:53.010Z,90.62
2022-09-26T06:10:53.031Z,90.92
2022-09-26T06:11:52.930Z,90.92
2022-09-26T06:12:53.137Z,90.82
2022-09-26T06:13:52.933Z,90.82
2022-09-26T06:14:52.906Z,90.92
2022-09-26T06:15:52.999Z,90.82
2022-09-26T06:16:53.041Z,90.62
2022-09-26T06:17:52.913Z,90.72
2022-09-26T06:18:52.869Z,90.62
2022-09-26T06:19:52.942Z,90.72
2022-09-26T06:20:52.963Z,90.62
2022-09-26T06:21:52.875Z,90.62
2022-09-26T06:22:52.916Z,90.82
2022-09-26T06:23:52.811Z,90.72
2022-09-26T06:24:52.786Z,90.52
2022-09-26T06:25:52.710Z,90.62
2022-09-26T06:26:52.682Z,90.52
2022-09-26T06:27:57.618Z,90.52
2022-09-26T06:28:53.757Z,90.52
2022-09-26T06:29:52.691Z,90.31
2022-09-26T06:30:52.848Z,90.31
2022-09-26T06:31:52.724Z,90.31
2022-09-26T06:32:52.788Z,89.90
2022-09-26T06:33:53.139Z,90.00
2022-09-26T06:34:52.834Z,90.11
2022-09-26T06:35:52.940Z,90.11
2022-09-26T06:36:52.580Z,90.21
2022-09-26T06:37:52.569Z,90.31
2022-09-26T06:38:52.608Z,89.97
2022-09-26T06:39:57.000Z,89.76
2022-09-26T06:40:53.797Z,89.86
2022-09-26T06:41:52.656Z,89.86
2022-09-26T06:42:52.498Z,89.97
2022-09-26T06:43:52.608Z,89.86
2022-09-26T06:44:52.832Z,89.56
2022-09-26T06:45:52.564Z,89.56
2022-09-26T06:46:52.535Z,89.45
2022-09-26T06:47:52.567Z,88.94
2022-09-26T06:48:52.820Z,88.94
2022-09-26T06:49:52.559Z,89.45
2022-09-26T06:50:52.479Z,89.35
2022-09-26T06:51:52.545Z,89.45
2022-09-26T06:52:52.399Z,89.45
2022-09-26T06:53:52.474Z,88.94
2022-09-26T06:54:52.446Z,88.94
2022-09-26T06:55:52.511Z,88.74
2022-09-26T06:56:52.336Z,88.43
2022-09-26T06:57:52.466Z,88.53
2022-09-26T06:58:52.391Z,88.74
2022-09-26T06:59:52.401Z,88.43
2022-09-26T07:00:52.389Z,88.43
2022-09-26T07:01:52.461Z,88.33
2022-09-26T07:02:52.286Z,88.12
2022-09-26T07:03:54.470Z,88.39
2022-09-26T07:04:52.287Z,88.59
2022-09-26T07:05:52.308Z,88.39
2022-09-26T07:06:52.259Z,88.29
2022-09-26T07:07:52.279Z,88.18
2022-09-26T07:09:02.074Z,88.08
2022-09-26T07:09:53.301Z,87.98
2022-09-26T07:10:52.204Z,88.08
2022-09-26T07:12:13.571Z,87.77
2022-09-26T07:12:53.474Z,87.67
2022-09-26T07:13:52.205Z,87.77
2022-09-26T07:14:53.819Z,87.47
2022-09-26T07:15:52.302Z,87.37
2022-09-26T07:16:52.189Z,87.37
2022-09-26T07:17:52.071Z,86.85
2022-09-26T07:18:52.291Z,86.91
2022-09-26T07:19:52.138Z,86.82
2022-09-26T07:20:56.470Z,87.02
2022-09-26T07:21:52.105Z,86.41
2022-09-26T07:22:51.977Z,86.51
2022-09-26T07:23:52.163Z,86.51
2022-09-26T07:24:52.052Z,86.51
2022-09-26T07:25:52.242Z,86.51
2022-09-26T07:26:51.935Z,86.51
2022-09-26T07:27:51.967Z,86.41
2022-09-26T07:28:54.742Z,86.30
2022-09-26T07:29:51.958Z,86.51
2022-09-26T07:30:51.997Z,86.00
2022-09-26T07:31:51.988Z,85.69
2022-09-26T07:32:51.911Z,85.69
2022-09-26T07:33:51.879Z,85.79
2022-09-26T07:34:51.834Z,85.69
2022-09-26T07:35:51.954Z,85.69
2022-09-26T07:36:51.878Z,85.79
2022-09-26T07:37:51.825Z,85.49
2022-09-26T07:38:51.815Z,85.38
2022-09-26T07:39:54.732Z,85.49
2022-09-26T07:40:51.819Z,85.18
2022-09-26T07:41:51.743Z,83.95
2022-09-26T07:43:15.201Z,84.16
2022-09-26T07:44:45.968Z,84.47
2022-09-26T07:45:21.025Z,84.63
2022-09-26T07:45:52.671Z,84.42
2022-09-26T07:46:51.776Z,84.22
2022-09-26T07:47:51.794Z,84.42
2022-09-26T07:48:51.808Z,84.74
2022-09-26T07:49:51.674Z,84.12
2022-09-26T07:50:51.685Z,84.01
2022-09-26T07:51:51.666Z,83.51
2022-09-26T07:52:51.648Z,83.30
2022-09-26T07:53:51.665Z,83.20
2022-09-26T07:54:51.592Z,83.20
2022-09-26T07:55:51.663Z,83.10
2022-09-26T07:56:51.600Z,83.30
2022-09-26T07:57:51.528Z,83.40
2022-09-26T07:58:51.681Z,83.00
2022-09-26T07:59:51.761Z,82.49
2022-09-26T08:00:51.592Z,82.39
2022-09-26T08:01:51.479Z,82.49
2022-09-26T08:02:51.555Z,82.39
2022-09-26T08:03:51.480Z,82.28
2022-09-26T08:04:51.460Z,82.69
2022-09-26T08:05:51.564Z,82.49
2022-09-26T08:06:51.424Z,82.28
2022-09-26T08:07:51.596Z,81.77
2022-09-26T08:08:51.546Z,82.18
2022-09-26T08:09:51.404Z,82.49
2022-09-26T08:10:51.339Z,81.57
2022-09-26T08:11:51.384Z,81.37
2022-09-26T08:12:51.372Z,81.77
2022-09-26T08:13:51.340Z,81.87
2022-09-26T08:14:51.522Z,81.46
2022-09-26T08:15:51.377Z,81.57
2022-09-26T08:16:51.310Z,81.16
2022-09-26T08:17:51.367Z,81.26
2022-09-26T08:18:51.422Z,80.85
2022-09-26T08:19:51.290Z,81.57
2022-09-26T08:20:51.256Z,81.57
2022-09-26T08:21:51.297Z,81.43
2022-09-26T08:22:51.219Z,81.32
2022-09-26T08:23:51.215Z,81.12
2022-09-26T08:24:51.213Z,81.12
2022-09-26T08:25:51.208Z,81.63
2022-09-26T08:26:51.176Z,81.02
2022-09-26T08:27:51.135Z,81.23
2022-09-26T08:28:51.190Z,80.71
2022-09-26T08:29:51.134Z,80.61
2022-09-26T08:30:51.197Z,81.12
2022-09-26T08:31:51.125Z,80.61
2022-09-26T08:32:51.078Z,81.02
2022-09-26T08:33:51.029Z,81.23
2022-09-26T08:34:51.078Z,81.73
2022-09-26T08:35:51.146Z,81.12
2022-09-26T08:36:51.130Z,81.37
2022-09-26T08:37:50.977Z,81.37
2022-09-26T08:38:51.204Z,81.57
2022-09-26T08:39:50.967Z,81.57
2022-09-26T08:40:51.154Z,81.87
2022-09-26T08:41:50.951Z,82.18
2022-09-26T08:42:50.929Z,81.98
2022-09-26T08:43:50.899Z,82.08
2022-09-26T08:44:51.079Z,82.69
2022-09-26T08:45:51.091Z,82.28
2022-09-26T08:46:51.065Z,82.59
2022-09-26T08:47:50.951Z,83.20
2022-09-26T08:48:50.932Z,83.40
2022-09-26T08:49:50.854Z,84.12
2022-09-26T08:50:50.910Z,83.61
2022-09-26T08:51:50.855Z,83.92
2022-09-26T08:52:50.785Z,83.61
2022-09-26T08:53:50.976Z,83.51
2022-09-26T08:54:50.813Z,83.40
2022-09-26T08:55:50.766Z,84.01
2022-09-26T08:56:50.743Z,84.33
2022-09-26T08:57:50.916Z,84.33
2022-09-26T08:58:50.717Z,83.51
2022-09-26T08:59:50.792Z,83.61
2022-09-26T09:00:50.801Z,83.92
2022-09-26T09:01:50.785Z,84.22
2022-09-26T09:02:50.716Z,83.30
2022-09-26T09:03:50.736Z,84.12
2022-09-26T09:04:53.951Z,84.53
2022-09-26T09:05:50.649Z,84.74
2022-09-26T09:06:50.742Z,84.53
2022-09-26T09:07:50.639Z,84.42
2022-09-26T09:08:50.700Z,84.33
2022-09-26T09:09:50.661Z,84.42
2022-09-26T09:10:50.764Z,84.33
2022-09-26T09:11:51.353Z,84.63
2022-09-26T09:12:50.592Z,84.74
2022-09-26T09:13:50.639Z,84.42
2022-09-26T09:15:07.676Z,84.01
2022-09-26T09:15:51.564Z,84.42
2022-09-26T09:16:50.453Z,84.74
2022-09-26T09:17:50.571Z,84.22
2022-09-26T09:18:50.528Z,84.53
2022-09-26T09:19:50.454Z,85.04
2022-09-26T09:20:50.833Z,85.04
2022-09-26T09:21:50.487Z,84.53
2022-09-26T09:22:50.431Z,84.83
2022-09-26T09:23:50.421Z,84.94
2022-09-26T09:24:50.409Z,85.24
2022-09-26T09:25:50.647Z,84.63
2022-09-26T09:27:53.174Z,84.63
2022-09-26T09:28:50.400Z,84.33
2022-09-26T09:29:50.320Z,84.94
2022-09-26T09:30:50.421Z,84.94
2022-09-26T09:31:50.427Z,84.83
2022-09-26T09:32:50.325Z,85.45
2022-09-26T09:33:50.372Z,84.33
2022-09-26T09:34:53.642Z,84.33
2022-09-26T09:35:50.262Z,83.81
2022-09-26T09:36:50.420Z,84.12
2022-09-26T09:37:50.254Z,84.53
2022-09-26T09:38:50.298Z,84.22
2022-09-26T09:39:50.215Z,84.83
2022-09-26T09:40:50.248Z,85.14
2022-09-26T09:41:50.200Z,85.24
2022-09-26T09:42:50.104Z,84.74
2022-09-26T09:43:50.094Z,85.45
2022-09-26T09:44:50.111Z,85.14
2022-09-26T09:45:50.190Z,84.63
2022-09-26T09:46:50.248Z,84.63
2022-09-26T09:47:50.102Z,84.63
2022-09-26T09:48:50.391Z,84.94
2022-09-26T09:49:50.228Z,84.77
2022-09-26T09:50:50.141Z,84.77
2022-09-26T09:51:50.001Z,84.88
2022-09-26T09:52:50.091Z,85.79
2022-09-26T09:53:50.050Z,86.51
2022-09-26T09:54:50.098Z,87.73
2022-09-26T09:55:49.965Z,87.94
2022-09-26T09:56:49.940Z,88.96
2022-09-26T09:57:49.999Z,87.98
2022-09-26T09:58:50.055Z,88.49
2022-09-26T09:59:49.984Z,88.79
2022-09-26T10:00:51.376Z,89.20
2022-09-26T10:01:49.889Z,89.11
2022-09-26T10:02:50.017Z,89.41
2022-09-26T10:03:49.902Z,89.41
2022-09-26T10:04:49.855Z,90.12
2022-09-26T10:05:49.887Z,90.12
2022-09-26T10:06:49.777Z,90.19
2022-09-26T10:07:49.847Z,89.88
2022-09-26T10:08:49.840Z,89.78
2022-09-26T10:09:49.869Z,89.78
2022-09-26T10:10:49.888Z,89.47
2022-09-26T10:11:52.616Z,89.58
2022-09-26T10:12:49.779Z,89.47
2022-09-26T10:13:49.782Z,89.78
2022-09-26T10:14:49.773Z,89.37
2022-09-26T10:15:49.725Z,89.47
2022-09-26T10:16:49.753Z,89.78
2022-09-26T10:18:12.743Z,90.39
2022-09-26T10:18:50.683Z,90.19
2022-09-26T10:19:49.656Z,90.19
2022-09-26T10:20:49.749Z,91.31
2022-09-26T10:21:49.773Z,91.52
2022-09-26T10:22:49.628Z,90.90
2022-09-26T10:23:49.673Z,90.90
2022-09-26T10:24:49.705Z,89.98
2022-09-26T10:25:49.636Z,90.49
2022-09-26T10:26:49.767Z,91.11
2022-09-26T10:27:49.588Z,90.94
2022-09-26T10:28:49.509Z,90.64
2022-09-26T10:29:49.544Z,91.15
2022-09-26T10:30:49.660Z,91.66
2022-09-26T10:31:49.519Z,91.76
2022-09-26T10:32:54.038Z,91.56
2022-09-26T10:33:50.488Z,91.46
2022-09-26T10:34:49.641Z,91.35
2022-09-26T10:35:49.783Z,91.25
2022-09-26T10:36:49.578Z,91.46
2022-09-26T10:37:49.523Z,91.96
2022-09-26T10:38:49.395Z,91.46
2022-09-26T10:39:49.517Z,91.46
2022-09-26T10:40:49.907Z,91.82
2022-09-26T10:41:53.091Z,91.82
2022-09-26T10:42:50.659Z,91.11
2022-09-26T10:43:49.607Z,91.00
2022-09-26T10:44:52.894Z,91.72
2022-09-26T10:45:49.701Z,91.52
2022-09-26T10:46:49.334Z,91.31
2022-09-26T10:47:49.431Z,90.90
2022-09-26T10:48:49.355Z,90.49
2022-09-26T10:49:49.263Z,91.00
2022-09-26T10:50:49.238Z,90.70
2022-09-26T10:51:49.225Z,90.90
2022-09-26T10:52:49.221Z,91.52
2022-09-26T10:53:49.563Z,91.00
2022-09-26T10:54:50.429Z,91.11
2022-09-26T10:55:49.460Z,91.31
2022-09-26T10:56:49.290Z,91.31
2022-09-26T10:57:49.325Z,91.46
2022-09-26T10:58:49.189Z,91.72
2022-09-26T10:59:49.115Z,92.47
2022-09-26T11:00:49.403Z,91.96
2022-09-26T11:01:49.206Z,91.76
2022-09-26T11:02:49.115Z,91.66
2022-09-26T11:03:49.269Z,92.07
2022-09-26T11:04:49.180Z,92.47
2022-09-26T11:05:49.137Z,92.68
2022-09-26T11:06:49.150Z,92.47
2022-09-26T11:07:49.076Z,92.17
2022-09-26T11:08:48.975Z,92.37
2022-09-26T11:09:48.984Z,92.99
2022-09-26T11:10:49.045Z,93.29
2022-09-26T11:11:49.064Z,93.40
2022-09-26T11:12:48.974Z,93.19
2022-09-26T11:13:48.957Z,93.60
2022-09-26T11:14:49.034Z,93.60
2022-09-26T11:15:49.115Z,93.70
2022-09-26T11:16:49.056Z,93.40
2022-09-26T11:17:48.981Z,93.29
2022-09-26T11:18:48.854Z,93.09
2022-09-26T11:19:53.791Z,93.19
2022-09-26T11:20:49.866Z,93.60
2022-09-26T11:21:48.821Z,93.09
2022-09-26T11:22:48.908Z,93.29
2022-09-26T11:23:48.912Z,92.88
2022-09-26T11:24:49.629Z,93.29
2022-09-26T11:25:48.920Z,93.19
2022-09-26T11:26:48.881Z,93.19
2022-09-26T11:27:49.119Z,93.60
2022-09-26T11:28:48.913Z,93.40
2022-09-26T11:29:48.978Z,93.19
2022-09-26T11:30:49.049Z,93.50
2022-09-26T11:31:48.759Z,93.80
2022-09-26T11:32:48.824Z,93.91
2022-09-26T11:33:48.737Z,93.80
2022-09-26T11:34:49.106Z,93.40
2022-09-26T11:35:48.741Z,92.88
2022-09-26T11:36:49.026Z,93.19
2022-09-26T11:37:48.730Z,92.88
2022-09-26T11:38:48.753Z,92.88
2022-09-26T11:39:48.572Z,92.99
2022-09-26T11:40:48.931Z,92.94
2022-09-26T11:41:49.360Z,93.66
2022-09-26T11:42:48.611Z,93.96
2022-09-26T11:43:48.567Z,93.86
2022-09-26T11:44:48.705Z,93.35
2022-09-26T11:45:48.744Z,93.15
2022-09-26T11:46:48.678Z,93.15
2022-09-26T11:47:49.053Z,92.54
2022-09-26T11:48:48.598Z,92.94
2022-09-26T11:49:48.727Z,92.84
2022-09-26T11:50:48.509Z,92.84
2022-09-26T11:51:48.446Z,92.54
2022-09-26T11:52:49.513Z,92.74
2022-09-26T11:53:48.429Z,92.43
2022-09-26T11:54:48.492Z,92.33
2022-09-26T11:55:48.577Z,91.92
2022-09-26T11:56:49.003Z,91.82
2022-09-26T11:57:48.693Z,91.82
2022-09-26T11:58:48.499Z,91.67
2022-09-26T11:59:48.813Z,91.47
2022-09-26T12:00:48.622Z,90.96
2022-09-26T12:01:48.492Z,91.16
2022-09-26T12:02:48.856Z,91.06
2022-09-26T12:03:48.823Z,90.96
2022-09-26T12:04:48.264Z,91.16
2022-09-26T12:05:48.319Z,90.75
2022-09-26T12:06:48.388Z,90.20
2022-09-26T12:07:48.537Z,90.51
2022-09-26T12:08:48.289Z,90.00
2022-09-26T12:09:48.504Z,90.00
2022-09-26T12:10:48.255Z,89.69
2022-09-26T12:11:48.214Z,88.98
2022-09-26T12:12:48.370Z,89.49
2022-09-26T12:13:48.656Z,89.45
2022-09-26T12:14:48.691Z,89.34
2022-09-26T12:15:48.319Z,88.22
2022-09-26T12:16:48.106Z,87.71
2022-09-26T12:17:48.123Z,87.82
2022-09-26T12:18:48.267Z,88.32
2022-09-26T12:19:48.294Z,88.53
2022-09-26T12:20:48.765Z,88.22
2022-09-26T12:21:48.155Z,88.12
2022-09-26T12:22:48.172Z,87.71
2022-09-26T12:23:48.279Z,88.43
2022-09-26T12:24:48.194Z,88.22
2022-09-26T12:25:48.019Z,87.77
2022-09-26T12:26:48.017Z,87.67
2022-09-26T12:27:47.977Z,86.86
2022-09-26T12:28:47.985Z,87.16
2022-09-26T12:29:48.129Z,86.55
2022-09-26T12:30:47.940Z,86.15
2022-09-26T12:31:47.965Z,85.53
2022-09-26T12:32:48.415Z,85.53
2022-09-26T12:33:47.935Z,85.94
2022-09-26T12:34:47.864Z,85.22
2022-09-26T12:35:48.002Z,84.82
2022-09-26T12:36:48.105Z,84.61
2022-09-26T12:37:47.838Z,84.11
2022-09-26T12:38:47.791Z,84.11
2022-09-26T12:39:47.859Z,84.11
2022-09-26T12:40:47.865Z,84.41
2022-09-26T12:41:47.746Z,84.72
2022-09-26T12:42:47.951Z,85.33
2022-09-26T12:43:47.929Z,84.61
2022-09-26T12:44:47.742Z,84.20
2022-09-26T12:45:53.037Z,84.20
2022-09-26T12:46:48.721Z,84.00
2022-09-26T12:47:47.784Z,84.20
2022-09-26T12:48:47.723Z,84.20
2022-09-26T12:49:48.096Z,84.11
2022-09-26T12:50:47.746Z,85.13
2022-09-26T12:51:47.714Z,85.02
2022-09-26T12:52:48.059Z,84.72
2022-09-26T12:53:47.598Z,84.20